Time;durP1;ratioP1;P1;durP2;ratioP2;P2;SDS_P1;SDS_P2;PMS_P1;PMS_P2;Temp;Humidity;BMP_temperature;BMP_pressure;BME280_temperature;BME280_humidity;BME280_pressure;Samples;Min_cycle;Max_cycle;Signal;HPM_P1;HPM_P2
2022/08/30 00:01:23;;;;;;;5.40;3.20;;;24.10;57.70;;;;;;221079;1270;22550;-54
2022/08/30 00:06:28;;;;;;;6.00;3.30;;;24.10;57.70;;;;;;220494;1268;23035;-53
2022/08/30 00:11:33;;;;;;;5.70;2.80;;;24.10;57.60;;;;;;220550;1269;24223;-53
2022/08/30 00:16:37;;;;;;;4.70;3.20;;;24.10;58.00;;;;;;220484;1268;24114;-52
2022/08/30 00:21:42;;;;;;;6.30;3.30;;;24.00;57.90;;;;;;220586;1268;25324;-52
2022/08/30 00:26:47;;;;;;;5.00;3.20;;;24.00;58.00;;;;;;220352;1268;22554;-53
2022/08/30 00:31:51;;;;;;;5.20;3.10;;;24.00;57.60;;;;;;220368;1268;22556;-53
2022/08/30 00:36:58;;;;;;;4.50;3.50;;;24.00;58.00;;;;;;220769;1268;22532;-51
2022/08/30 00:42:02;;;;;;;5.90;3.30;;;24.00;57.90;;;;;;220683;1268;26470;-53
2022/08/30 00:47:08;;;;;;;5.70;3.00;;;24.00;57.70;;;;;;220185;1271;25529;-54
2022/08/30 00:52:13;;;;;;;4.30;2.80;;;24.00;58.30;;;;;;220557;1268;24250;-54
2022/08/30 00:57:19;;;;;;;6.00;3.40;;;24.00;57.70;;;;;;220281;1268;24293;-51
2022/08/30 01:02:27;;;;;;;3.90;2.80;;;23.90;58.00;;;;;;220348;1268;22566;-52
2022/08/30 01:07:33;;;;;;;4.90;3.40;;;23.90;57.90;;;;;;220534;1268;22541;-52
2022/08/30 01:12:38;;;;;;;4.60;3.10;;;23.90;58.10;;;;;;220401;1268;24251;-57
2022/08/30 01:17:44;;;;;;;6.30;3.10;;;23.90;58.20;;;;;;220209;1268;25404;-50
2022/08/30 01:22:48;;;;;;;4.80;3.20;;;23.90;58.50;;;;;;220622;1268;25245;-49
2022/08/30 01:28:02;;;;;;;6.40;3.40;;;23.90;58.20;;;;;;220714;1268;25242;-53
2022/08/30 01:33:09;;;;;;;4.60;2.80;;;23.90;58.20;;;;;;220025;1268;22588;-51
2022/08/30 01:38:16;;;;;;;5.40;3.00;;;23.90;58.10;;;;;;220562;1269;24300;-50
2022/08/30 01:43:19;;;;;;;6.40;3.20;;;23.80;58.20;;;;;;220443;1267;24293;-54
2022/08/30 01:48:23;;;;;;;4.30;3.00;;;23.80;58.50;;;;;;220642;1268;22605;-51
2022/08/30 01:53:33;;;;;;;6.20;3.50;;;23.80;58.20;;;;;;220320;1267;22489;-50
2022/08/30 01:58:39;;;;;;;5.10;2.80;;;23.80;58.20;;;;;;220034;1268;23070;-54
2022/08/30 02:03:44;;;;;;;5.10;3.30;;;23.80;58.20;;;;;;220878;1267;25500;-51
2022/08/30 02:08:48;;;;;;;4.00;2.80;;;23.80;58.30;;;;;;220946;1268;25662;-49
2022/08/30 02:13:52;;;;;;;6.80;3.20;;;23.80;58.50;;;;;;220744;1268;22613;-50
2022/08/30 02:18:56;;;;;;;7.40;3.40;;;23.80;58.50;;;;;;220302;1267;22598;-54
2022/08/30 02:24:00;;;;;;;4.80;2.90;;;23.80;58.20;;;;;;220407;1268;22684;-53
2022/08/30 02:29:04;;;;;;;5.10;3.40;;;23.70;58.20;;;;;;221072;1267;24411;-53
2022/08/30 02:34:09;;;;;;;5.10;3.10;;;23.70;58.80;;;;;;220940;1267;22525;-51
2022/08/30 02:39:14;;;;;;;4.90;3.10;;;23.70;58.20;;;;;;220641;1267;22695;-52
2022/08/30 02:44:19;;;;;;;8.30;3.30;;;23.70;58.30;;;;;;221047;1266;22798;-52
2022/08/30 02:49:24;;;;;;;4.40;2.70;;;23.70;58.30;;;;;;220702;1267;23920;-50
2022/08/30 02:54:36;;;;;;;4.70;3.10;;;23.70;58.40;;;;;;220943;1267;22528;-49
2022/08/30 02:59:44;;;;;;;4.40;2.80;;;23.70;58.30;;;;;;220648;1267;24641;-51
2022/08/30 03:04:48;;;;;;;5.30;3.10;;;23.60;58.80;;;;;;220614;1268;24238;-54
2022/08/30 03:09:53;;;;;;;7.40;3.90;;;23.60;58.60;;;;;;220412;1267;22628;-51
2022/08/30 03:14:58;;;;;;;6.00;3.30;;;23.60;58.30;;;;;;220949;1267;26580;-53
2022/08/30 03:20:04;;;;;;;4.70;3.40;;;23.60;58.10;;;;;;220335;1268;23744;-54
2022/08/30 03:25:08;;;;;;;4.30;3.10;;;23.60;58.40;;;;;;220553;1267;22560;-54
2022/08/30 03:30:13;;;;;;;6.60;3.90;;;23.60;58.40;;;;;;220220;1270;25298;-54
2022/08/30 03:35:18;;;;;;;6.00;3.80;;;23.60;58.40;;;;;;219943;1270;22597;-51
2022/08/30 03:40:23;;;;;;;5.50;3.50;;;23.60;58.50;;;;;;220522;1267;22535;-52
2022/08/30 03:45:29;;;;;;;6.10;3.40;;;23.60;58.80;;;;;;220656;1267;24559;-50
2022/08/30 03:50:36;;;;;;;5.00;3.50;;;23.60;58.90;;;;;;220276;1267;24294;-51
2022/08/30 03:55:41;;;;;;;6.90;3.60;;;23.50;58.60;;;;;;220524;1267;22526;-51
2022/08/30 04:00:46;;;;;;;5.00;3.70;;;23.50;58.60;;;;;;220047;1268;22544;-53
2022/08/30 04:05:55;;;;;;;8.10;4.10;;;23.50;58.70;;;;;;220261;1268;22535;-50
2022/08/30 04:11:01;;;;;;;6.50;4.20;;;23.50;58.80;;;;;;220399;1268;25325;-49
2022/08/30 04:16:08;;;;;;;7.30;4.40;;;23.50;58.80;;;;;;220144;1268;22679;-51
2022/08/30 04:21:12;;;;;;;7.20;3.60;;;23.50;58.90;;;;;;220582;1267;24395;-53
2022/08/30 04:26:16;;;;;;;7.20;4.50;;;23.50;58.80;;;;;;220188;1267;25293;-51
2022/08/30 04:31:21;;;;;;;5.60;4.10;;;23.40;59.00;;;;;;221017;1267;24223;-55
2022/08/30 04:36:26;;;;;;;7.70;4.00;;;23.40;58.80;;;;;;220365;1267;25311;-53
2022/08/30 04:41:29;;;;;;;6.30;3.80;;;23.40;58.90;;;;;;220633;1267;22556;-51
2022/08/30 04:46:37;;;;;;;5.90;4.10;;;23.40;58.90;;;;;;220452;1267;24679;-52
2022/08/30 04:51:47;;;;;;;6.70;4.00;;;23.40;58.90;;;;;;220806;1267;24211;-53
2022/08/30 04:56:50;;;;;;;6.50;4.10;;;23.40;59.00;;;;;;219525;1268;1449984;-51
2022/08/30 05:01:54;;;;;;;7.50;4.00;;;23.40;59.10;;;;;;220247;1267;25358;-53
2022/08/30 05:07:01;;;;;;;6.00;4.20;;;23.40;59.10;;;;;;220075;1269;22718;-53
2022/08/30 05:12:12;;;;;;;6.00;3.90;;;23.40;59.20;;;;;;220420;1268;25666;-50
2022/08/30 05:17:17;;;;;;;7.50;3.90;;;23.40;59.10;;;;;;220704;1268;24222;-54
2022/08/30 05:22:22;;;;;;;8.60;4.30;;;23.40;59.10;;;;;;220598;1267;24260;-51
2022/08/30 05:27:26;;;;;;;6.70;4.10;;;23.40;59.20;;;;;;220307;1267;25077;-53
2022/08/30 05:32:30;;;;;;;5.80;3.90;;;23.40;59.30;;;;;;220043;1267;23904;-52
2022/08/30 05:37:37;;;;;;;6.50;4.10;;;23.40;59.60;;;;;;220190;1267;25299;-54
2022/08/30 05:42:46;;;;;;;6.20;4.30;;;23.40;60.10;;;;;;220732;1267;24219;-53
2022/08/30 05:47:53;;;;;;;5.00;3.90;;;23.40;59.50;;;;;;220208;1267;22544;-50
2022/08/30 05:53:00;;;;;;;6.30;4.10;;;23.40;59.60;;;;;;220231;1267;25585;-52
2022/08/30 05:58:04;;;;;;;5.30;4.10;;;23.40;59.60;;;;;;220259;1267;22525;-52
2022/08/30 06:03:10;;;;;;;7.20;4.80;;;23.40;59.70;;;;;;220802;1267;22523;-53
2022/08/30 06:08:17;;;;;;;6.50;4.10;;;23.40;59.90;;;;;;220356;1267;22556;-52
2022/08/30 06:13:22;;;;;;;6.80;4.20;;;23.40;60.00;;;;;;220094;1267;24793;-52
2022/08/30 06:18:25;;;;;;;6.60;4.20;;;23.40;60.00;;;;;;220709;1267;22634;-50
2022/08/30 06:23:31;;;;;;;6.80;4.20;;;23.40;59.90;;;;;;220515;1267;22567;-49
2022/08/30 06:28:35;;;;;;;4.90;3.80;;;23.40;60.20;;;;;;220898;1267;22610;-53
2022/08/30 06:33:40;;;;;;;6.00;3.70;;;23.40;60.60;;;;;;220784;1267;22551;-55
2022/08/30 06:38:45;;;;;;;6.70;4.30;;;23.40;60.20;;;;;;220381;1267;23970;-54
2022/08/30 06:43:50;;;;;;;6.90;4.70;;;23.50;61.00;;;;;;220097;1270;22547;-50
2022/08/30 06:48:55;;;;;;;6.70;4.50;;;23.50;60.90;;;;;;220194;1268;22540;-52
2022/08/30 06:54:00;;;;;;;6.90;4.20;;;23.50;60.90;;;;;;219906;1270;24191;-51
2022/08/30 06:59:04;;;;;;;7.30;4.40;;;23.50;60.90;;;;;;220432;1267;22659;-52
2022/08/30 07:04:13;;;;;;;11.40;4.80;;;23.60;61.10;;;;;;220130;1269;22548;-52
2022/08/30 07:09:18;;;;;;;6.50;4.20;;;23.60;61.30;;;;;;220304;1267;25318;-53
2022/08/30 07:14:30;;;;;;;6.40;4.30;;;23.60;60.90;;;;;;220477;1267;23051;-51
2022/08/30 07:19:40;;;;;;;6.50;4.10;;;23.60;61.30;;;;;;220600;1267;24300;-52
2022/08/30 07:24:50;;;;;;;4.70;3.70;;;23.60;61.50;;;;;;220349;1267;22528;-53
2022/08/30 07:29:57;;;;;;;4.70;3.40;;;23.60;61.50;;;;;;220153;1267;23911;-53
2022/08/30 07:35:04;;;;;;;6.50;4.20;;;23.60;61.90;;;;;;219980;1267;22561;-51
2022/08/30 07:40:11;;;;;;;7.20;4.50;;;23.60;61.70;;;;;;220644;1267;22727;-52
2022/08/30 07:45:26;;;;;;;5.70;4.80;;;23.70;61.80;;;;;;220681;1267;24215;-49
2022/08/30 07:50:45;;;;;;;6.30;4.50;;;23.70;62.10;;;;;;220425;1267;24377;-55
2022/08/30 07:56:02;;;;;;;7.60;5.00;;;23.70;62.10;;;;;;220587;1267;25294;-54
2022/08/30 08:01:09;;;;;;;6.20;4.50;;;23.80;62.50;;;;;;220907;1267;22601;-52
2022/08/30 08:06:21;;;;;;;5.40;4.20;;;23.80;62.10;;;;;;220479;1267;26837;-53
2022/08/30 08:11:40;;;;;;;7.10;5.00;;;23.80;62.50;;;;;;220238;1267;24365;-54
2022/08/30 08:16:45;;;;;;;6.40;5.00;;;23.80;62.00;;;;;;220749;1267;22563;-52
2022/08/30 08:21:49;;;;;;;5.60;4.40;;;23.80;61.90;;;;;;220243;1267;24246;-54
2022/08/30 08:27:13;;;;;;;6.80;4.00;;;23.90;61.90;;;;;;220152;1267;22550;-49
2022/08/30 08:32:17;;;;;;;6.10;4.20;;;23.90;61.90;;;;;;220705;1267;25550;-51
2022/08/30 08:37:21;;;;;;;5.50;4.20;;;23.90;62.00;;;;;;220343;1267;22694;-52
2022/08/30 08:42:59;;;;;;;5.60;4.30;;;23.90;62.00;;;;;;220321;1267;24402;-52
2022/08/30 08:48:26;;;;;;;5.00;4.00;;;23.90;62.30;;;;;;220890;1267;24428;-53
2022/08/30 08:53:54;;;;;;;5.60;4.00;;;23.90;62.30;;;;;;220484;1267;24308;-54
2022/08/30 08:59:00;;;;;;;5.80;4.50;;;23.90;62.10;;;;;;220576;1267;23031;-55
2022/08/30 09:04:25;;;;;;;4.80;3.80;;;24.00;62.10;;;;;;220846;1267;25209;-52
2022/08/30 09:09:37;;;;;;;5.50;3.80;;;24.10;62.00;;;;;;220610;1267;22545;-54
2022/08/30 09:14:48;;;;;;;6.90;4.60;;;24.10;62.00;;;;;;220401;1266;22520;-54
2022/08/30 09:19:59;;;;;;;5.20;3.70;;;24.10;61.60;;;;;;220299;1267;24304;-52
2022/08/30 09:25:07;;;;;;;4.70;3.50;;;24.20;61.80;;;;;;220525;1267;23146;-53
2022/08/30 09:30:24;;;;;;;4.20;3.40;;;24.20;61.70;;;;;;220547;1267;22695;-51
2022/08/30 09:35:47;;;;;;;6.10;3.60;;;24.20;61.80;;;;;;220375;1267;22544;-51
2022/08/30 09:40:57;;;;;;;3.60;3.20;;;24.20;61.80;;;;;;220742;1267;25315;-52
2022/08/30 09:46:01;;;;;;;5.90;3.50;;;24.30;61.80;;;;;;220275;1267;24237;-51
2022/08/30 09:51:14;;;;;;;5.20;3.70;;;24.30;61.80;;;;;;220091;1267;22553;-52
2022/08/30 09:56:56;;;;;;;6.00;3.60;;;24.30;61.70;;;;;;220089;1268;22568;-53
2022/08/30 10:02:38;;;;;;;4.40;3.40;;;24.30;61.70;;;;;;220681;1267;22545;-56
2022/08/30 10:07:55;;;;;;;4.70;3.10;;;24.30;61.70;;;;;;220890;1267;25360;-54
2022/08/30 10:13:21;;;;;;;5.50;3.10;;;24.30;61.90;;;;;;220881;1266;22547;-50
2022/08/30 10:18:42;;;;;;;5.50;2.80;;;24.40;61.70;;;;;;220586;1267;22687;-52
2022/08/30 10:24:11;;;;;;;3.60;2.60;;;24.30;61.60;;;;;;220276;1267;25309;-53
2022/08/30 10:29:30;;;;;;;4.50;2.70;;;24.30;61.60;;;;;;220257;1267;22547;-52
2022/08/30 10:34:39;;;;;;;3.00;2.40;;;24.30;61.60;;;;;;221021;1267;22528;-54
2022/08/30 10:39:50;;;;;;;6.20;2.70;;;24.40;61.50;;;;;;220712;1267;24229;-52
2022/08/30 10:45:09;;;;;;;3.10;2.50;;;24.50;61.30;;;;;;220571;1267;26489;-51
2022/08/30 10:50:26;;;;;;;3.20;2.60;;;24.60;61.50;;;;;;220729;1267;22730;-53
2022/08/30 10:55:36;;;;;;;3.90;2.90;;;24.60;61.20;;;;;;220598;1267;25285;-54
2022/08/30 11:01:07;;;;;;;3.80;2.70;;;24.50;61.20;;;;;;220367;1267;22535;-55
2022/08/30 11:06:57;;;;;;;3.00;2.40;;;24.50;61.20;;;;;;220652;1267;24314;-52
2022/08/30 11:12:49;;;;;;;3.30;2.30;;;24.40;61.00;;;;;;220504;1267;22751;-50
2022/08/30 11:17:57;;;;;;;3.20;2.40;;;24.50;60.70;;;;;;220394;1267;22680;-53
2022/08/30 11:23:37;;;;;;;3.70;2.50;;;24.60;60.70;;;;;;219979;1267;22537;-51
2022/08/30 11:28:45;;;;;;;4.40;2.40;;;24.70;60.30;;;;;;220256;1267;24259;-52
2022/08/30 11:33:57;;;;;;;3.90;2.50;;;24.70;60.00;;;;;;220678;1267;25515;-49
2022/08/30 11:39:12;;;;;;;3.00;2.10;;;24.70;59.90;;;;;;220358;1267;22542;-51
2022/08/30 11:44:21;;;;;;;3.00;2.20;;;24.70;60.10;;;;;;220705;1267;22823;-53
2022/08/30 11:49:55;;;;;;;3.50;2.40;;;24.60;60.10;;;;;;220765;1267;25256;-55
2022/08/30 11:55:11;;;;;;;4.20;2.40;;;24.60;59.80;;;;;;220580;1267;25451;-51
2022/08/30 12:00:28;;;;;;;5.10;2.00;;;24.60;59.90;;;;;;220620;1266;23026;-52
2022/08/30 12:06:00;;;;;;;2.70;2.10;;;24.60;59.40;;;;;;220490;1267;24660;-54
2022/08/30 12:11:14;;;;;;;3.10;2.50;;;24.60;59.20;;;;;;220848;1267;22548;-52
2022/08/30 12:16:25;;;;;;;3.50;2.10;;;24.60;59.20;;;;;;220898;1267;25434;-54
2022/08/30 12:21:35;;;;;;;2.80;2.10;;;24.60;59.20;;;;;;220013;1267;25731;-54
2022/08/30 12:26:53;;;;;;;3.40;2.00;;;24.70;59.60;;;;;;220550;1267;24422;-55
2022/08/30 12:32:06;;;;;;;4.50;2.20;;;24.80;59.10;;;;;;220088;1270;25332;-53
2022/08/30 12:37:32;;;;;;;2.60;2.00;;;24.90;59.50;;;;;;220772;1267;25311;-53
2022/08/30 12:43:16;;;;;;;3.20;2.00;;;24.90;59.40;;;;;;220985;1267;22537;-54
2022/08/30 12:48:39;;;;;;;2.90;2.10;;;25.00;59.00;;;;;;220772;1267;22550;-52
2022/08/30 12:53:45;;;;;;;2.90;2.10;;;25.00;58.90;;;;;;220243;1267;25378;-53
2022/08/30 12:58:54;;;;;;;;;;;24.90;59.00;;;;;;221058;1267;22591;-51
2022/08/30 13:04:43;;;;;;;3.60;2.10;;;25.00;58.80;;;;;;220451;1269;22989;-50
2022/08/30 13:10:18;;;;;;;2.70;2.10;;;24.90;58.30;;;;;;220380;1267;22553;-49
2022/08/30 13:15:52;;;;;;;5.20;1.90;;;25.00;58.10;;;;;;220624;1267;22532;-52
2022/08/30 13:21:33;;;;;;;4.50;2.20;;;25.10;57.50;;;;;;220811;1267;22526;-49
2022/08/30 13:27:00;;;;;;;3.50;2.60;;;25.10;58.10;;;;;;220410;1267;25338;-54
2022/08/30 13:32:04;;;;;;;3.40;2.40;;;25.20;57.30;;;;;;220608;1267;22545;-51
2022/08/30 13:37:14;;;;;;;5.60;2.20;;;25.10;57.50;;;;;;220669;1267;25563;-54
2022/08/30 13:42:39;;;;;;;3.60;2.20;;;25.00;57.60;;;;;;220631;1267;25243;-53
2022/08/30 13:47:45;;;;;;;3.90;2.10;;;25.20;58.00;;;;;;220277;1267;22715;-54
2022/08/30 13:52:49;;;;;;;8.60;2.80;;;25.20;57.60;;;;;;220337;1268;22546;-54
2022/08/30 13:57:53;;;;;;;3.30;2.40;;;25.30;57.60;;;;;;220861;1268;25241;-54
2022/08/30 14:02:59;;;;;;;2.80;1.90;;;25.30;57.20;;;;;;220233;1267;25823;-54
2022/08/30 14:08:07;;;;;;;3.00;1.70;;;25.30;57.20;;;;;;220966;1267;25230;-54
2022/08/30 14:13:32;;;;;;;3.40;2.20;;;25.30;56.80;;;;;;220535;1268;22619;-52
2022/08/30 14:18:36;;;;;;;5.80;2.00;;;25.30;57.20;;;;;;220472;1267;22533;-57
2022/08/30 14:23:41;;;;;;;2.90;1.90;;;25.30;56.60;;;;;;220648;1267;22591;-55
2022/08/30 14:28:48;;;;;;;3.40;1.90;;;25.30;56.50;;;;;;220550;1267;25306;-54
2022/08/30 14:33:57;;;;;;;3.30;1.80;;;25.30;56.30;;;;;;220961;1267;24381;-54
2022/08/30 14:39:05;;;;;;;3.30;2.00;;;25.30;56.10;;;;;;220543;1268;24895;-53
2022/08/30 14:44:15;;;;;;;4.80;1.90;;;25.20;55.70;;;;;;220279;1267;22529;-54
2022/08/30 14:49:19;;;;;;;4.50;2.00;;;25.20;56.00;;;;;;220731;1267;22548;-55
2022/08/30 14:54:26;;;;;;;4.20;2.20;;;25.30;56.60;;;;;;221119;1267;25506;-54
2022/08/30 14:59:30;;;;;;;3.50;2.20;;;25.20;56.30;;;;;;220666;1267;25246;-52
2022/08/30 15:04:34;;;;;;;3.60;2.20;;;25.20;56.20;;;;;;220500;1266;22705;-50
2022/08/30 15:09:38;;;;;;;3.00;1.60;;;25.10;56.50;;;;;;220646;1267;22531;-53
2022/08/30 15:14:43;;;;;;;5.10;2.30;;;25.10;56.30;;;;;;221066;1267;22566;-51
2022/08/30 15:19:50;;;;;;;2.70;2.00;;;25.10;56.00;;;;;;220913;1267;23076;-57
2022/08/30 15:24:54;;;;;;;5.00;2.20;;;25.00;56.30;;;;;;220743;1267;24256;-53
2022/08/30 15:29:58;;;;;;;2.60;2.00;;;25.00;56.20;;;;;;220556;1267;22534;-52
2022/08/30 15:35:03;;;;;;;2.30;1.90;;;25.00;56.20;;;;;;220674;1267;25574;-53
2022/08/30 15:40:10;;;;;;;4.60;2.10;;;24.90;56.10;;;;;;220995;1267;22547;-53
2022/08/30 15:45:16;;;;;;;3.40;2.00;;;25.00;56.30;;;;;;220683;1267;24418;-52
2022/08/30 15:50:20;;;;;;;2.90;2.00;;;25.00;56.20;;;;;;220392;1267;22528;-52
2022/08/30 15:55:26;;;;;;;3.20;2.00;;;24.90;56.00;;;;;;220302;1267;22634;-55
2022/08/30 16:00:30;;;;;;;3.50;1.90;;;24.90;56.20;;;;;;220698;1268;24229;-51
2022/08/30 16:05:34;;;;;;;2.60;2.00;;;24.90;56.20;;;;;;221007;1267;25288;-53
2022/08/30 16:10:39;;;;;;;4.50;2.10;;;24.90;56.20;;;;;;220485;1267;22544;-52
2022/08/30 16:15:45;;;;;;;3.30;1.90;;;24.90;56.60;;;;;;220544;1267;25400;-52
2022/08/30 16:21:02;;;;;;;2.30;1.70;;;24.90;56.70;;;;;;220422;1267;24212;-55
2022/08/30 16:26:07;;;;;;;4.10;2.10;;;24.90;56.20;;;;;;220920;1268;24300;-54
2022/08/30 16:31:14;;;;;;;4.30;2.30;;;24.90;56.10;;;;;;220264;1270;25623;-53
2022/08/30 16:36:22;;;;;;;3.00;2.00;;;24.90;56.60;;;;;;220561;1268;25293;-50
2022/08/30 16:41:28;;;;;;;2.50;2.10;;;24.80;56.70;;;;;;220805;1267;22914;-53
2022/08/30 16:46:36;;;;;;;2.70;1.60;;;24.80;56.20;;;;;;220495;1267;22566;-52
2022/08/30 16:51:39;;;;;;;3.50;1.80;;;24.80;56.10;;;;;;220650;1267;22566;-53
2022/08/30 16:56:49;;;;;;;2.70;2.00;;;24.80;56.20;;;;;;219313;1267;1341293;-52
2022/08/30 17:01:54;;;;;;;2.70;1.80;;;24.80;56.10;;;;;;220427;1267;25453;-51
2022/08/30 17:06:57;;;;;;;3.40;1.80;;;24.80;56.80;;;;;;220660;1267;24254;-58
2022/08/30 17:12:14;;;;;;;3.80;1.90;;;24.70;56.40;;;;;;220557;1267;25405;-52
2022/08/30 17:17:18;;;;;;;3.20;1.80;;;24.70;56.50;;;;;;220845;1267;23968;-52
2022/08/30 17:22:24;;;;;;;3.40;1.80;;;24.70;57.00;;;;;;220462;1267;22544;-52
2022/08/30 17:27:28;;;;;;;2.90;1.80;;;24.70;56.70;;;;;;220787;1267;25331;-53
2022/08/30 17:32:34;;;;;;;2.10;1.60;;;24.70;57.00;;;;;;220802;1267;22714;-51
2022/08/30 17:37:46;;;;;;;3.10;1.60;;;24.70;57.00;;;;;;220664;1267;24804;-53
2022/08/30 17:42:53;;;;;;;2.90;1.70;;;24.70;57.50;;;;;;220599;1267;24290;-51
2022/08/30 17:48:00;;;;;;;4.10;2.30;;;24.70;57.20;;;;;;220803;1267;25615;-54
2022/08/30 17:53:10;;;;;;;2.50;1.70;;;24.70;57.30;;;;;;220772;1270;22525;-50
2022/08/30 17:58:15;;;;;;;3.80;2.00;;;24.70;57.40;;;;;;220979;1268;25525;-55
2022/08/30 18:03:32;;;;;;;4.20;1.90;;;24.60;57.50;;;;;;220342;1267;24300;-58
2022/08/30 18:08:54;;;;;;;4.00;1.70;;;24.60;57.50;;;;;;220611;1267;24660;-51
2022/08/30 18:14:05;;;;;;;6.10;2.10;;;24.60;57.60;;;;;;220717;1268;22690;-53
2022/08/30 18:19:34;;;;;;;3.70;2.00;;;24.60;57.70;;;;;;220706;1270;22817;-50
2022/08/30 18:24:51;;;;;;;2.90;1.90;;;24.60;57.80;;;;;;220728;1267;25290;-53
2022/08/30 18:30:15;;;;;;;3.30;1.70;;;24.60;57.90;;;;;;220594;1268;22688;-53
2022/08/30 18:35:26;;;;;;;3.10;1.80;;;24.60;58.00;;;;;;220328;1268;22532;-51
2022/08/30 18:40:44;;;;;;;3.10;2.10;;;24.50;58.00;;;;;;220287;1267;25236;-54
2022/08/30 18:45:53;;;;;;;4.00;1.90;;;24.50;58.10;;;;;;220606;1267;24100;-52
2022/08/30 18:51:10;;;;;;;3.00;1.60;;;24.50;58.50;;;;;;220862;1267;24318;-53
2022/08/30 18:56:32;;;;;;;3.00;1.80;;;24.50;58.20;;;;;;221041;1269;22839;-53
2022/08/30 19:02:19;;;;;;;3.30;1.70;;;24.50;58.30;;;;;;220474;1268;25333;-50
2022/08/30 19:08:00;;;;;;;3.80;1.90;;;24.50;58.70;;;;;;220527;1269;25492;-51
2022/08/30 19:13:05;;;;;;;2.90;2.00;;;24.50;58.80;;;;;;220459;1270;22534;-53
2022/08/30 19:18:09;;;;;;;3.00;2.00;;;24.50;58.50;;;;;;220639;1267;22512;-53
2022/08/30 19:23:20;;;;;;;;;;;24.50;58.60;;;;;;220373;1270;22538;-52
2022/08/30 19:28:29;;;;;;;4.20;1.70;;;24.40;58.60;;;;;;220504;1268;24182;-52
2022/08/30 19:33:33;;;;;;;3.40;1.80;;;24.40;58.70;;;;;;220820;1268;25366;-51
2022/08/30 19:38:43;;;;;;;3.00;1.90;;;24.40;59.10;;;;;;220816;1268;24325;-56
2022/08/30 19:43:47;;;;;;;2.90;1.70;;;24.40;58.80;;;;;;220559;1270;26585;-52
2022/08/30 19:48:51;;;;;;;4.10;1.80;;;24.40;59.50;;;;;;220820;1268;24220;-54
2022/08/30 19:54:10;;;;;;;2.70;1.70;;;24.40;58.80;;;;;;221026;1269;25470;-55
2022/08/30 19:59:14;;;;;;;3.10;1.90;;;24.30;58.80;;;;;;220447;1269;25440;-53
2022/08/30 20:04:26;;;;;;;3.20;2.00;;;24.30;59.10;;;;;;220446;1268;24246;-53
2022/08/30 20:09:46;;;;;;;2.80;1.90;;;24.30;58.80;;;;;;220742;1270;22641;-54
2022/08/30 20:15:24;;;;;;;2.90;1.70;;;24.30;58.90;;;;;;220763;1268;24256;-52
2022/08/30 20:20:31;;;;;;;2.30;1.40;;;24.30;58.80;;;;;;220756;1268;22606;-52
2022/08/30 20:26:17;;;;;;;2.30;1.40;;;24.30;58.90;;;;;;220048;1274;22535;-54
2022/08/30 20:31:37;;;;;;;3.60;1.60;;;24.30;58.90;;;;;;219822;1271;26035;-52
2022/08/30 20:36:41;;;;;;;4.10;1.80;;;24.30;58.90;;;;;;220064;1272;22548;-52
2022/08/30 20:41:47;;;;;;;2.70;1.50;;;24.30;58.80;;;;;;220264;1271;26523;-53
2022/08/30 20:46:55;;;;;;;2.80;1.50;;;24.30;58.40;;;;;;220712;1268;25257;-51
2022/08/30 20:52:08;;;;;;;3.30;1.60;;;24.20;58.80;;;;;;221087;1268;25248;-53
2022/08/30 20:57:23;;;;;;;2.70;1.70;;;24.20;58.80;;;;;;220452;1267;23315;-52
2022/08/30 21:02:30;;;;;;;3.30;1.80;;;24.20;58.80;;;;;;220468;1268;24304;-55
2022/08/30 21:07:41;;;;;;;2.70;1.50;;;24.20;58.90;;;;;;220807;1269;22540;-53
2022/08/30 21:12:44;;;;;;;2.90;1.80;;;24.20;59.00;;;;;;220746;1268;22547;-55
2022/08/30 21:17:49;;;;;;;3.10;1.60;;;24.20;59.00;;;;;;220943;1268;22547;-52
2022/08/30 21:22:54;;;;;;;2.80;1.60;;;24.20;58.90;;;;;;220777;1268;22551;-54
2022/08/30 21:27:59;;;;;;;4.60;1.80;;;24.20;58.90;;;;;;220578;1268;22537;-56
2022/08/30 21:33:04;;;;;;;3.50;1.50;;;24.10;58.80;;;;;;220636;1268;22558;-52
2022/08/30 21:38:08;;;;;;;3.90;1.60;;;24.10;59.00;;;;;;220442;1267;24260;-52
2022/08/30 21:43:13;;;;;;;3.50;1.50;;;24.10;59.10;;;;;;220398;1269;22538;-52
2022/08/30 21:48:17;;;;;;;2.40;1.50;;;24.10;59.30;;;;;;221089;1269;22550;-53
2022/08/30 21:53:21;;;;;;;4.70;1.40;;;24.10;59.20;;;;;;220816;1267;25236;-51
2022/08/30 21:58:24;;;;;;;4.70;1.70;;;24.10;59.20;;;;;;220603;1268;22560;-51
2022/08/30 22:03:28;;;;;;;2.90;2.10;;;24.00;59.10;;;;;;220729;1268;22902;-55
2022/08/30 22:08:32;;;;;;;2.70;1.60;;;24.10;59.30;;;;;;220476;1267;25355;-52
2022/08/30 22:13:38;;;;;;;3.90;1.60;;;24.00;59.20;;;;;;220493;1267;24212;-54
2022/08/30 22:18:42;;;;;;;3.00;1.70;;;24.10;59.30;;;;;;220549;1268;22602;-54
2022/08/30 22:23:46;;;;;;;2.80;1.40;;;24.00;59.30;;;;;;220602;1267;22624;-54
2022/08/30 22:28:52;;;;;;;2.90;1.70;;;24.00;59.40;;;;;;220518;1267;24270;-52
2022/08/30 22:33:56;;;;;;;3.20;1.80;;;24.00;59.40;;;;;;220658;1267;22544;-52
2022/08/30 22:39:01;;;;;;;3.30;1.60;;;24.00;59.40;;;;;;220526;1268;22554;-55
2022/08/30 22:44:05;;;;;;;2.50;1.40;;;24.00;59.40;;;;;;220383;1267;22682;-52
2022/08/30 22:49:15;;;;;;;2.10;1.50;;;24.00;59.40;;;;;;220631;1268;24201;-54
2022/08/30 22:54:20;;;;;;;3.70;1.70;;;24.00;60.10;;;;;;220482;1267;25142;-54
2022/08/30 22:59:23;;;;;;;4.20;1.50;;;24.00;59.50;;;;;;220550;1267;22546;-51
2022/08/30 23:04:41;;;;;;;3.20;1.80;;;24.00;59.60;;;;;;220368;1268;22810;-50
2022/08/30 23:09:45;;;;;;;2.30;1.50;;;23.90;59.60;;;;;;220391;1267;22789;-54
2022/08/30 23:14:49;;;;;;;2.30;1.30;;;23.90;59.70;;;;;;220473;1267;22563;-50
2022/08/30 23:19:58;;;;;;;2.80;1.70;;;23.90;59.80;;;;;;220496;1267;22690;-52
